• Join FlightAware (Why Join?)
  • Login
  • US Flag 
07:09PM EDT


 

Airport Tracker/Info


-or-


 

Live Flight TrackerFlight Track Log ✈ N319EE ✈ 01-Oct-2013 ✈ KROC - KBGM

Flight Track Log - Related Links

Times and Time Zones

All times are in EDT time to prevent confusion due to time zone crossing. See the N319EE flight status page for this flight to view local times or setup timezone preferences in your user account.

Time Position Orientation Groundspeed Altitude Reporting Facility
EDT Latitude Longitude Course Direction KTS MPH feet Rate Location/Type
05:28PM 43.0806 -77.7008 195° South 157 181 3,400  Level Cleveland Center
05:29PM 43.0356 -77.6778 159° South 174 200 5,500 1,980 Climbing Cleveland Center
05:30PM 42.9867 -77.6586 164° South 179 206 7,500 1,680 Climbing Cleveland Center
05:31PM 42.9392 -77.6192 149° Southeast 219 252 9,000 720 Climbing Cleveland Center
05:32PM 42.9033 -77.5325 119° Southeast 260 299 9,000  Level Cleveland Center
05:34PM 42.8644 -77.4428 121° Southeast 271 312 9,000  Level Cleveland Center
05:35PM 42.8186 -77.3383 121° Southeast 269 310 9,000  Level Cleveland Center
05:36PM 42.7803 -77.2514 121° Southeast 267 307 9,000  Level Cleveland Center
05:37PM 42.7425 -77.1650 121° Southeast 266 306 9,000  Level Cleveland Center
05:38PM 42.7044 -77.0789 121° Southeast 265 305 9,000  Level Cleveland Center
05:39PM 42.6669 -76.9939 121° Southeast 264 304 9,000  Level Cleveland Center
05:40PM 42.6286 -76.9086 121° Southeast 264 304 9,000  Level Cleveland Center
05:41PM 42.5817 -76.8058 122° Southeast 265 305 9,000  Level Cleveland Center
05:42PM 42.5503 -76.7342 121° Southeast 268 308 9,000  Level New York Center
05:43PM 42.5106 -76.6519 123° Southeast 268 308 9,000 -300 Level New York Center
05:44PM 42.4689 -76.5667 123° Southeast 268 308 8,400 -900 Descending New York Center
05:45PM 42.4294 -76.4817 122° Southeast 268 308 7,200 -1,320 Descending New York Center
05:46PM 42.3875 -76.3967 124° Southeast 268 308 5,800 -1,140 Descending New York Center
05:47PM 42.3497 -76.3147 122° Southeast 268 308 5,000 -480 Descending New York Center
05:48PM 42.3158 -76.2417 122° Southeast 250 288 4,900 -540 Descending New York Center
05:49PM 42.2750 -76.1739 129° Southeast 238 274 4,000 -660 Descending New York Center
05:50PM 42.2406 -76.1067 125° Southeast 233 268 3,600 -420 Descending New York Center
05:51PM 42.2061 -76.0422 126° Southeast 222 255 3,200 -360 Descending New York Center
05:52PM 42.1661 -76.0028 144° Southeast 197 227 2,900 -420 Descending New York Center
05:53PM 42.1619 -75.9547 97° East 137 158 2,400 -420 Descending New York Center
05:54PM 42.1700 -75.9164 74° East 105 121 2,100 -300 Descending New York Center